createdAt,value
2022-07-27T00:05:00.058Z,20.53
2022-07-27T00:10:02.450Z,18.87
2022-07-27T00:15:06.946Z,20.72
2022-07-27T00:20:09.869Z,20.68
2022-07-27T00:25:12.286Z,19.75
2022-07-27T00:30:18.864Z,20.35
2022-07-27T00:35:21.273Z,18.35
2022-07-27T00:40:23.719Z,18.02
2022-07-27T00:45:25.992Z,20.13
2022-07-27T00:50:28.388Z,18.73
2022-07-27T00:55:33.274Z,19.74
2022-07-27T01:00:39.383Z,20.17
2022-07-27T01:05:43.059Z,18.40
2022-07-27T01:10:46.755Z,19.54
2022-07-27T01:15:49.159Z,19.68
2022-07-27T01:20:51.473Z,17.44
2022-07-27T01:25:54.630Z,19.96
2022-07-27T01:31:15.617Z,19.75
2022-07-27T01:36:17.969Z,19.60
2022-07-27T01:41:20.276Z,18.10
2022-07-27T01:46:23.005Z,19.15
2022-07-27T01:51:25.395Z,19.94
2022-07-27T01:56:27.771Z,17.22
2022-07-27T02:01:30.216Z,18.70
2022-07-27T02:06:32.610Z,19.09
2022-07-27T02:11:53.536Z,19.24
2022-07-27T02:16:55.824Z,19.61
2022-07-27T02:21:58.101Z,19.83
2022-07-27T02:27:00.386Z,19.33
2022-07-27T02:32:02.824Z,19.10
2022-07-27T02:37:05.919Z,19.26
2022-07-27T02:42:08.348Z,17.35
2022-07-27T02:47:10.998Z,19.14
2022-07-27T02:52:13.395Z,19.10
2022-07-27T02:57:15.803Z,19.92
2022-07-27T03:02:18.202Z,19.00
2022-07-27T03:07:20.569Z,18.34
2022-07-27T03:12:23.008Z,20.06
2022-07-27T03:17:25.546Z,19.79
2022-07-27T03:22:31.052Z,19.63
2022-07-27T03:27:33.368Z,19.35
2022-07-27T03:32:35.686Z,19.20
2022-07-27T03:37:38.057Z,19.90
2022-07-27T03:42:40.339Z,19.42
2022-07-27T03:47:42.677Z,19.92
2022-07-27T03:52:45.583Z,18.83
2022-07-27T03:57:48.246Z,20.44
2022-07-27T04:02:50.648Z,20.75
2022-07-27T04:07:54.951Z,21.10
2022-07-27T04:12:57.454Z,20.76
2022-07-27T04:18:00.955Z,21.04
2022-07-27T04:23:03.315Z,21.41
2022-07-27T04:28:05.969Z,21.04
2022-07-27T04:33:08.199Z,21.16
2022-07-27T04:38:10.444Z,19.60
2022-07-27T04:43:12.891Z,22.10
2022-07-27T04:48:15.195Z,21.88
2022-07-27T04:53:17.563Z,21.90
2022-07-27T04:58:20.000Z,22.31
2022-07-27T05:03:22.335Z,22.20
2022-07-27T05:08:24.763Z,21.98
2022-07-27T05:13:27.159Z,22.70
2022-07-27T05:18:29.565Z,22.75
2022-07-27T05:23:31.998Z,19.98
2022-07-27T05:28:34.300Z,23.25
2022-07-27T05:33:36.759Z,23.00
2022-07-27T05:38:39.738Z,21.66
2022-07-27T05:43:42.179Z,22.63
2022-07-27T05:48:44.671Z,23.35
2022-07-27T05:53:46.994Z,23.50
2022-07-27T05:58:51.865Z,23.95
2022-07-27T06:03:54.202Z,23.83
2022-07-27T06:08:56.599Z,23.92
2022-07-27T06:13:59.095Z,24.39
2022-07-27T06:19:01.506Z,23.62
2022-07-27T06:24:03.981Z,24.73
2022-07-27T06:29:10.572Z,24.55
2022-07-27T06:34:13.326Z,24.34
2022-07-27T06:39:17.240Z,23.73
2022-07-27T06:44:19.541Z,25.22
2022-07-27T06:49:22.286Z,24.63
2022-07-27T06:54:24.804Z,24.67
2022-07-27T06:59:27.205Z,25.46
2022-07-27T07:04:46.344Z,25.19
2022-07-27T07:09:48.817Z,25.15
2022-07-27T07:14:51.140Z,24.49
2022-07-27T07:19:53.450Z,25.60
2022-07-27T07:25:00.696Z,24.93
2022-07-27T07:30:05.949Z,26.12
2022-07-27T07:35:08.802Z,25.97
2022-07-27T07:45:50.424Z,26.35
2022-07-27T07:51:11.335Z,26.02
2022-07-27T07:56:30.164Z,26.70
2022-07-27T08:01:35.397Z,26.59
2022-07-27T08:06:40.579Z,26.82
2022-07-27T08:11:48.882Z,26.21
2022-07-27T08:16:51.100Z,27.02
2022-07-27T08:21:53.468Z,26.33
2022-07-27T08:26:55.986Z,26.79
2022-07-27T08:31:58.510Z,26.61
2022-07-27T08:37:02.173Z,27.13
2022-07-27T08:42:05.211Z,27.31
2022-07-27T08:47:11.962Z,27.57
2022-07-27T08:52:14.339Z,26.12
2022-07-27T08:57:16.850Z,27.30
2022-07-27T09:02:21.965Z,27.65
2022-07-27T09:07:31.247Z,26.25
2022-07-27T09:12:34.507Z,26.09
2022-07-27T09:17:48.556Z,27.98
2022-07-27T09:22:56.541Z,28.11
2022-07-27T09:27:59.804Z,27.67
2022-07-27T09:33:06.760Z,28.24
2022-07-27T09:38:23.297Z,26.84
2022-07-27T09:48:48.155Z,28.22
2022-07-27T09:53:50.571Z,28.28
2022-07-27T09:58:56.825Z,28.39
2022-07-27T10:04:02.317Z,28.24
2022-07-27T10:09:04.934Z,28.72
2022-07-27T10:14:07.960Z,28.76
2022-07-27T10:19:16.908Z,28.61
2022-07-27T10:24:32.455Z,28.74
2022-07-27T10:29:34.772Z,28.29
2022-07-27T10:34:41.991Z,28.87
2022-07-27T10:39:51.405Z,28.48
2022-07-27T10:44:59.648Z,28.84
2022-07-27T10:50:17.673Z,29.20
2022-07-27T10:55:32.771Z,29.36
2022-07-27T11:01:02.291Z,28.99
2022-07-27T11:06:31.876Z,28.49
2022-07-27T11:11:34.884Z,29.17
2022-07-27T11:16:53.988Z,27.14
2022-07-27T11:21:58.245Z,29.06
2022-07-27T11:27:00.557Z,28.34
2022-07-27T11:32:19.666Z,29.06
2022-07-27T11:37:24.358Z,28.87
2022-07-27T11:42:37.809Z,28.85
2022-07-27T11:47:40.264Z,28.70
2022-07-27T11:52:45.797Z,28.52
2022-07-27T11:57:48.186Z,29.10
2022-07-27T12:02:51.807Z,29.30
2022-07-27T12:07:54.775Z,28.90
2022-07-27T12:12:57.112Z,29.08
2022-07-27T12:17:59.460Z,29.47
2022-07-27T12:23:07.127Z,29.51
2022-07-27T12:28:13.440Z,29.07
2022-07-27T12:33:30.676Z,29.37
2022-07-27T12:38:43.883Z,30.04
2022-07-27T12:43:46.586Z,29.61
2022-07-27T12:48:49.078Z,29.37
2022-07-27T12:53:52.713Z,29.65
2022-07-27T12:59:02.442Z,29.55
2022-07-27T13:04:04.813Z,29.24
2022-07-27T13:09:07.103Z,29.47
2022-07-27T13:14:09.562Z,29.30
2022-07-27T13:19:15.920Z,28.89
2022-07-27T13:24:21.851Z,28.77
2022-07-27T13:29:24.231Z,28.53
2022-07-27T13:34:26.700Z,28.58
2022-07-27T13:39:30.094Z,28.32
2022-07-27T13:45:00.981Z,29.08
2022-07-27T13:49:58.969Z,28.73
2022-07-27T13:55:01.426Z,28.65
2022-07-27T14:00:05.889Z,28.69
2022-07-27T14:05:08.876Z,28.59
2022-07-27T14:10:31.363Z,27.53
2022-07-27T14:15:34.579Z,28.36
2022-07-27T14:20:53.876Z,28.12
2022-07-27T14:25:57.284Z,28.26
2022-07-27T14:31:00.917Z,27.55
2022-07-27T14:36:04.590Z,28.03
2022-07-27T14:41:07.184Z,27.92
2022-07-27T14:46:09.510Z,27.82
2022-07-27T14:51:11.860Z,27.14
2022-07-27T14:56:14.276Z,28.02
2022-07-27T15:01:17.247Z,27.55
2022-07-27T15:06:19.883Z,27.96
2022-07-27T15:11:22.254Z,28.10
2022-07-27T15:16:24.882Z,27.65
2022-07-27T15:21:27.796Z,28.32
2022-07-27T15:26:30.133Z,27.85
2022-07-27T15:31:32.554Z,28.31
2022-07-27T15:36:40.565Z,27.67
2022-07-27T15:41:46.467Z,27.66
2022-07-27T15:46:49.238Z,28.15
2022-07-27T15:51:52.873Z,28.21
2022-07-27T15:56:57.800Z,28.19
2022-07-27T16:02:00.279Z,27.77
2022-07-27T16:07:02.606Z,26.94
2022-07-27T16:12:05.091Z,27.80
2022-07-27T16:17:07.492Z,28.05
2022-07-27T16:22:10.287Z,27.41
2022-07-27T16:27:12.769Z,26.33
2022-07-27T16:32:15.188Z,26.88
2022-07-27T16:37:17.659Z,26.06
2022-07-27T16:42:20.183Z,27.16
2022-07-27T16:47:24.008Z,24.99
2022-07-27T16:52:26.456Z,25.81
2022-07-27T16:57:28.849Z,27.60
2022-07-27T17:02:31.244Z,27.33
2022-07-27T17:07:33.754Z,26.99
2022-07-27T17:12:39.438Z,27.37
2022-07-27T17:17:41.883Z,27.09
2022-07-27T17:22:44.347Z,26.37
2022-07-27T17:27:47.185Z,26.68
2022-07-27T17:32:49.657Z,25.98
2022-07-27T17:38:07.632Z,26.58
2022-07-27T17:43:10.275Z,25.84
2022-07-27T17:48:12.798Z,26.08
2022-07-27T17:53:16.062Z,26.00
2022-07-27T17:58:18.518Z,26.04
2022-07-27T18:03:22.166Z,26.02
2022-07-27T18:08:24.916Z,26.07
2022-07-27T18:13:38.016Z,26.01
2022-07-27T18:18:42.753Z,25.38
2022-07-27T18:23:47.040Z,25.78
2022-07-27T18:28:51.193Z,24.79
2022-07-27T18:33:54.778Z,25.17
2022-07-27T18:38:58.143Z,25.33
2022-07-27T18:44:00.579Z,25.12
2022-07-27T18:49:06.019Z,25.45
2022-07-27T18:54:14.688Z,25.71
2022-07-27T18:59:26.558Z,23.08
2022-07-27T19:04:29.931Z,25.23
2022-07-27T19:09:37.129Z,24.60
2022-07-27T19:14:39.976Z,24.63
2022-07-27T19:19:42.628Z,24.58
2022-07-27T19:24:54.963Z,24.39
2022-07-27T19:29:59.237Z,24.57
2022-07-27T19:35:01.765Z,24.43
2022-07-27T19:40:20.108Z,23.17
2022-07-27T19:45:27.254Z,24.04
2022-07-27T19:50:29.788Z,24.14
2022-07-27T19:55:35.409Z,23.63
2022-07-27T20:00:41.127Z,23.65
2022-07-27T20:05:43.655Z,22.90
2022-07-27T20:10:47.625Z,22.96
2022-07-27T20:15:50.146Z,23.58
2022-07-27T20:20:52.503Z,23.29
2022-07-27T20:25:54.901Z,21.73
2022-07-27T20:30:57.402Z,22.89
2022-07-27T20:35:59.839Z,23.14
2022-07-27T20:41:02.154Z,22.26
2022-07-27T20:46:04.651Z,22.75
2022-07-27T20:51:07.064Z,21.71
2022-07-27T20:56:09.547Z,22.21
2022-07-27T21:01:12.076Z,22.62
2022-07-27T21:06:14.402Z,22.70
2022-07-27T21:11:16.816Z,20.30
2022-07-27T21:16:19.269Z,21.88
2022-07-27T21:21:26.973Z,21.62
2022-07-27T21:26:30.077Z,20.08
2022-07-27T21:31:32.539Z,22.24
2022-07-27T21:36:35.372Z,22.44
2022-07-27T21:41:37.985Z,21.73
2022-07-27T21:46:40.277Z,21.79
2022-07-27T21:51:42.645Z,21.86
2022-07-27T21:56:50.338Z,21.96
2022-07-27T22:01:53.042Z,22.07
2022-07-27T22:06:56.101Z,20.50
2022-07-27T22:11:58.621Z,19.49
2022-07-27T22:17:03.348Z,21.51
2022-07-27T22:22:05.752Z,21.57
2022-07-27T22:27:08.147Z,20.98
2022-07-27T22:32:12.309Z,20.89
2022-07-27T22:37:15.188Z,21.54
2022-07-27T22:42:17.717Z,21.15
2022-07-27T22:47:20.100Z,20.85
2022-07-27T22:52:22.469Z,21.25
2022-07-27T22:57:26.000Z,21.01
2022-07-27T23:02:28.375Z,19.43
2022-07-27T23:07:30.663Z,20.84
2022-07-27T23:12:33.040Z,20.56
2022-07-27T23:17:35.319Z,19.95
2022-07-27T23:22:37.596Z,21.30
2022-07-27T23:27:40.983Z,21.22
2022-07-27T23:32:43.307Z,21.16
2022-07-27T23:37:45.612Z,20.88
2022-07-27T23:42:48.295Z,20.93
2022-07-27T23:47:50.734Z,20.79
2022-07-27T23:52:53.014Z,21.11
2022-07-27T23:57:55.309Z,20.84
